Time;durP1;ratioP1;P1;durP2;ratioP2;P2;SDS_P1;SDS_P2;PMS_P1;PMS_P2;Temp;Humidity;BMP_temperature;BMP_pressure;BME280_temperature;BME280_humidity;BME280_pressure;Samples;Min_cycle;Max_cycle;Signal;HPM_P1;HPM_P2
2021/11/26 00:02:10;;;;;;;53.55;30.40;;;;;;;1.76;73.32;99245.52;2037862;84;21623;-76
2021/11/26 00:05:12;;;;;;;53.38;32.05;;;;;;;1.79;73.25;99241.33;2041759;84;21012;-76
2021/11/26 00:08:13;;;;;;;47.38;29.55;;;;;;;1.79;73.29;99249.66;2044363;85;21010;-75
2021/11/26 00:11:15;;;;;;;45.33;28.07;;;;;;;1.79;73.16;99226.12;2045109;85;21040;-75
2021/11/26 00:14:23;;;;;;;49.65;26.97;;;;;;;1.76;73.13;99218.05;2043909;85;21083;-75
2021/11/26 00:17:23;;;;;;;46.95;27.37;;;;;;;1.74;73.17;99207.38;2039284;85;21537;-75
2021/11/26 00:20:24;;;;;;;42.98;25.35;;;;;;;1.73;73.19;99210.95;2042544;85;21095;-75
2021/11/26 00:23:26;;;;;;;44.08;27.37;;;;;;;1.74;73.16;99202.96;2045790;85;21464;-75
2021/11/26 00:26:28;;;;;;;45.08;26.82;;;;;;;1.76;73.10;99193.20;2041018;85;21071;-75
2021/11/26 00:29:30;;;;;;;49.58;27.42;;;;;;;1.78;73.01;99194.39;2044894;86;21046;-75
2021/11/26 00:32:31;;;;;;;47.27;29.45;;;;;;;1.80;73.00;99191.14;2047250;85;21054;-75
2021/11/26 00:35:33;;;;;;;52.17;29.32;;;;;;;1.82;73.03;99192.33;2046014;86;21077;-75
2021/11/26 00:38:35;;;;;;;52.95;30.97;;;;;;;1.82;73.00;99185.79;2046058;86;21169;-75
2021/11/26 00:41:37;;;;;;;50.50;30.00;;;;;;;1.79;72.98;99182.47;2044071;86;21602;-77
2021/11/26 00:44:38;;;;;;;51.63;29.98;;;;;;;1.79;72.99;99173.80;2045215;85;21060;-75
2021/11/26 00:47:41;;;;;;;47.98;27.58;;;;;;;1.75;73.00;99171.95;2045520;85;21048;-75
2021/11/26 00:50:43;;;;;;;49.75;28.90;;;;;;;1.74;72.92;99184.66;2045910;85;21052;-75
2021/11/26 00:53:45;;;;;;;54.73;31.97;;;;;;;1.75;72.96;99185.51;2043709;85;22362;-75
2021/11/26 00:56:46;;;;;;;53.52;30.17;;;;;;;1.72;72.84;99182.67;2045471;85;21028;-75
2021/11/26 00:59:48;;;;;;;54.42;31.73;;;;;;;1.68;72.93;99182.58;2046860;85;21589;-75
2021/11/26 01:02:50;;;;;;;57.25;32.93;;;;;;;1.65;72.92;99195.92;2044910;86;21040;-75
2021/11/26 01:05:52;;;;;;;53.87;30.95;;;;;;;1.61;72.94;99185.87;2044815;85;21081;-74
2021/11/26 01:08:53;;;;;;;58.33;32.00;;;;;;;1.60;73.04;99175.05;2048343;85;21031;-75
2021/11/26 01:11:55;;;;;;;51.65;29.30;;;;;;;1.59;73.01;99185.99;2042012;85;21479;-75
2021/11/26 01:14:57;;;;;;;57.23;31.90;;;;;;;1.57;73.10;99183.98;2046745;85;21039;-75
2021/11/26 01:17:59;;;;;;;55.10;30.02;;;;;;;1.57;73.16;99170.91;2045994;85;21061;-74
2021/11/26 01:21:04;;;;;;;58.85;32.95;;;;;;;1.57;73.18;99147.37;2044306;85;22634;-75
2021/11/26 01:24:05;;;;;;;60.20;33.90;;;;;;;1.57;73.24;99141.66;2047991;85;21095;-75
2021/11/26 01:27:07;;;;;;;60.45;34.23;;;;;;;1.65;73.47;99156.69;2044181;85;21062;-74
2021/11/26 01:30:26;;;;;;;68.85;36.33;;;;;;;1.67;73.37;99127.80;2045058;85;21512;-75
2021/11/26 01:33:19;;;;;;;64.58;36.98;;;;;;;1.70;73.47;99130.97;2042540;85;21133;-74
2021/11/26 01:36:22;;;;;;;61.40;35.78;;;;;;;1.74;73.45;99153.75;2044681;85;21053;-74
2021/11/26 01:39:25;;;;;;;62.75;33.48;;;;;;;1.76;73.39;99152.66;2045385;85;21084;-74
2021/11/26 01:42:26;;;;;;;61.88;34.38;;;;;;;1.75;73.38;99135.33;2048498;85;21009;-74
2021/11/26 01:45:28;;;;;;;64.32;34.25;;;;;;;1.74;73.44;99133.66;2042528;85;21103;-74
2021/11/26 01:48:30;;;;;;;61.70;34.05;;;;;;;1.79;73.51;99128.03;2047489;85;20999;-74
2021/11/26 01:51:31;;;;;;;62.83;34.83;;;;;;;1.78;73.33;99138.16;2046471;85;21052;-74
2021/11/26 01:54:33;;;;;;;62.40;34.75;;;;;;;1.86;73.51;99147.92;2046304;85;20989;-74
2021/11/26 01:57:35;;;;;;;90.22;43.33;;;;;;;1.90;73.45;99143.61;2046333;85;21052;-74
2021/11/26 02:00:41;;;;;;;65.52;35.78;;;;;;;1.91;73.32;99143.94;2044237;85;21019;-74
2021/11/26 02:03:43;;;;;;;62.60;34.08;;;;;;;1.84;73.26;99134.17;2044179;85;21069;-75
2021/11/26 02:06:44;;;;;;;60.95;32.42;;;;;;;1.71;73.17;99140.46;2047310;85;21609;-74
2021/11/26 02:09:46;;;;;;;59.33;33.80;;;;;;;1.60;73.32;99131.42;2041185;85;20998;-74
2021/11/26 02:12:48;;;;;;;64.82;33.60;;;;;;;1.58;73.51;99139.90;2044505;85;21048;-73
2021/11/26 02:15:52;;;;;;;62.13;34.23;;;;;;;1.64;73.65;99130.20;2040197;85;21016;-75
2021/11/26 02:18:53;;;;;;;65.47;35.78;;;;;;;1.64;73.47;99119.75;2043702;85;21119;-75
2021/11/26 02:21:56;;;;;;;65.55;35.40;;;;;;;1.62;73.63;99117.73;2041583;85;21109;-76
2021/11/26 02:24:57;;;;;;;63.17;36.03;;;;;;;1.68;73.75;99105.42;2046483;85;21084;-74
2021/11/26 02:28:03;;;;;;;76.47;38.67;;;;;;;1.71;73.79;99103.84;2045797;85;21580;-76
2021/11/26 02:31:05;;;;;;;70.37;36.05;;;;;;;1.69;73.64;99100.56;2046424;85;21025;-75
2021/11/26 02:34:07;;;;;;;60.50;32.88;;;;;;;1.66;73.72;99101.29;2046016;86;21039;-73
2021/11/26 02:37:09;;;;;;;61.98;33.45;;;;;;;1.61;73.82;99088.64;2045707;85;21036;-74
2021/11/26 02:40:15;;;;;;;59.70;34.18;;;;;;;1.66;73.95;99085.14;2044112;85;21057;-76
2021/11/26 02:43:18;;;;;;;58.58;34.05;;;;;;;1.74;74.04;99084.45;2044056;85;21027;-74
2021/11/26 02:46:19;;;;;;;62.93;34.90;;;;;;;1.78;73.90;99091.90;2043959;85;21009;-74
2021/11/26 02:49:21;;;;;;;59.33;34.08;;;;;;;1.77;73.74;99087.64;2047158;85;21534;-74
2021/11/26 02:52:23;;;;;;;59.27;32.30;;;;;;;1.74;73.86;99087.88;2045836;85;21017;-74
2021/11/26 02:55:29;;;;;;;59.53;31.30;;;;;;;1.69;73.81;99085.33;2047384;85;21006;-73
2021/11/26 02:58:31;;;;;;;56.83;31.95;;;;;;;1.69;73.93;99087.48;2045374;85;21073;-73
2021/11/26 03:01:33;;;;;;;65.28;34.88;;;;;;;1.67;73.90;99085.48;2046234;85;20966;-74
2021/11/26 03:04:34;;;;;;;61.37;35.43;;;;;;;1.69;74.00;99086.63;2044415;85;22192;-74
2021/11/26 03:07:36;;;;;;;67.25;36.58;;;;;;;1.66;73.96;99081.22;2050506;85;21024;-74
2021/11/26 03:10:38;;;;;;;62.35;35.95;;;;;;;1.68;74.06;99077.14;2043797;85;21047;-74
2021/11/26 03:13:40;;;;;;;66.85;36.08;;;;;;;1.67;74.08;99065.86;2043154;85;21450;-73
2021/11/26 03:16:42;;;;;;;56.85;31.55;;;;;;;1.67;74.02;99067.66;2019397;86;21054;-73
2021/11/26 03:19:43;;;;;;;55.98;32.05;;;;;;;1.68;74.10;99057.05;2047651;85;20997;-73
2021/11/26 03:22:45;;;;;;;59.38;33.63;;;;;;;1.71;74.11;99050.23;2044824;85;20963;-74
2021/11/26 03:25:47;;;;;;;62.62;33.40;;;;;;;1.77;74.13;99043.17;2042933;85;21547;-75
2021/11/26 03:28:49;;;;;;;59.50;33.28;;;;;;;1.81;74.02;99031.95;2038289;85;21036;-73
2021/11/26 03:31:50;;;;;;;60.10;33.83;;;;;;;1.84;74.02;99032.98;2033060;85;21149;-73
2021/11/26 03:34:52;;;;;;;54.67;32.05;;;;;;;1.84;73.95;99020.39;2032801;85;21033;-73
2021/11/26 03:37:54;;;;;;;57.03;32.05;;;;;;;1.83;73.89;99022.19;2037572;85;21064;-73
2021/11/26 03:40:56;;;;;;;57.88;33.48;;;;;;;1.79;73.79;99015.55;2036507;85;21517;-74
2021/11/26 03:43:59;;;;;;;55.70;31.02;;;;;;;1.72;73.78;99012.67;2034633;85;21049;-74
2021/11/26 03:47:00;;;;;;;55.78;31.17;;;;;;;1.67;73.78;99011.44;2037711;85;21001;-74
2021/11/26 03:50:04;;;;;;;52.17;31.25;;;;;;;1.63;73.88;99012.17;2036188;85;21709;-73
2021/11/26 03:53:05;;;;;;;57.78;32.53;;;;;;;1.62;73.86;99009.70;2034156;85;21052;-74
2021/11/26 03:56:07;;;;;;;61.35;35.17;;;;;;;1.64;74.01;99011.22;2035323;85;21036;-75
2021/11/26 03:59:09;;;;;;;57.80;31.10;;;;;;;1.65;73.95;99008.94;2037494;85;21541;-73
2021/11/26 04:02:10;;;;;;;58.80;31.93;;;;;;;1.65;74.02;99008.94;2032644;85;20993;-73
2021/11/26 04:05:13;;;;;;;53.08;30.52;;;;;;;1.68;73.94;99015.69;2035433;87;21455;-75
2021/11/26 04:08:15;;;;;;;51.95;30.75;;;;;;;1.68;73.94;99018.30;2031322;85;21040;-76
2021/11/26 04:11:17;;;;;;;55.35;31.87;;;;;;;1.64;73.71;99020.38;2033451;85;21101;-73
2021/11/26 04:14:18;;;;;;;59.33;32.78;;;;;;;1.59;73.82;99016.52;2035250;85;20978;-74
2021/11/26 04:17:21;;;;;;;59.23;33.78;;;;;;;1.54;73.78;99007.77;2036587;85;21092;-73
2021/11/26 04:20:23;;;;;;;55.52;31.52;;;;;;;1.53;74.02;99004.33;2035144;85;21496;-74
2021/11/26 04:23:25;;;;;;;56.25;31.35;;;;;;;1.58;74.02;99009.16;2031732;85;21014;-74
2021/11/26 04:26:26;;;;;;;54.08;30.52;;;;;;;1.60;74.05;99002.47;2033110;85;21060;-73
2021/11/26 04:29:28;;;;;;;53.98;30.20;;;;;;;1.61;74.10;98998.42;2035383;85;21142;-74
2021/11/26 04:32:31;;;;;;;56.90;33.35;;;;;;;1.67;74.05;98996.56;2035444;85;21078;-76
2021/11/26 04:35:33;;;;;;;58.70;32.28;;;;;;;1.68;74.04;98998.20;2037233;85;21037;-73
2021/11/26 04:38:35;;;;;;;57.88;32.05;;;;;;;1.70;74.09;98989.75;2035541;85;21081;-73
2021/11/26 04:41:36;;;;;;;56.58;30.80;;;;;;;1.73;74.11;98980.31;2041276;85;21734;-74
2021/11/26 04:44:38;;;;;;;55.67;31.52;;;;;;;1.74;74.05;98977.22;2036211;85;21104;-74
2021/11/26 04:47:40;;;;;;;54.08;30.43;;;;;;;1.76;74.09;98975.30;2036123;85;21015;-76
2021/11/26 04:50:42;;;;;;;51.58;30.68;;;;;;;1.79;74.13;98977.63;1973798;87;21168;-74
2021/11/26 04:53:44;;;;;;;53.42;31.50;;;;;;;1.83;74.06;98975.09;2011145;85;21611;-76
2021/11/26 04:56:46;;;;;;;53.80;30.52;;;;;;;1.87;74.01;98969.09;2005849;87;20976;-76
2021/11/26 04:59:48;;;;;;;55.58;30.52;;;;;;;1.89;74.13;98972.41;1973714;88;21076;-75
2021/11/26 05:02:50;;;;;;;52.65;30.12;;;;;;;1.93;74.06;98977.20;2010997;87;21092;-76
2021/11/26 05:05:51;;;;;;;54.73;32.13;;;;;;;1.96;74.09;98966.45;2011625;87;21085;-73
2021/11/26 05:08:54;;;;;;;56.90;32.85;;;;;;;1.96;74.07;98961.71;2012018;87;21483;-75
2021/11/26 05:11:56;;;;;;;52.90;29.32;;;;;;;1.97;74.15;98955.50;2010082;87;21614;-73
2021/11/26 05:14:58;;;;;;;51.02;29.48;;;;;;;1.98;74.09;98955.87;2011628;87;20993;-74
2021/11/26 05:18:04;;;;;;;47.48;28.38;;;;;;;1.98;74.00;98941.48;2014945;87;21061;-75
2021/11/26 05:21:05;;;;;;;54.50;28.83;;;;;;;1.98;73.97;98934.94;1982316;87;21069;-72
2021/11/26 05:24:08;;;;;;;54.48;32.30;;;;;;;2.05;74.11;98939.11;2010703;87;21053;-73
2021/11/26 05:27:09;;;;;;;52.83;31.35;;;;;;;2.11;74.07;98938.08;2013155;87;21078;-74
2021/11/26 05:30:12;;;;;;;58.63;32.23;;;;;;;2.15;73.89;98936.81;2013761;87;21081;-72
2021/11/26 05:33:14;;;;;;;51.88;31.42;;;;;;;2.14;73.76;98936.95;2012564;87;21105;-70
2021/11/26 05:36:16;;;;;;;57.48;33.83;;;;;;;2.05;73.70;98933.87;2014010;87;21595;-74
2021/11/26 05:39:18;;;;;;;51.98;30.52;;;;;;;1.96;73.70;98930.32;2011922;87;21098;-78
2021/11/26 05:42:20;;;;;;;50.75;29.57;;;;;;;1.85;73.80;98939.14;2005778;87;21085;-80
2021/11/26 05:45:22;;;;;;;54.13;32.42;;;;;;;1.75;73.95;98937.86;2007116;87;21100;-79
2021/11/26 05:48:25;;;;;;;57.03;31.00;;;;;;;1.70;74.07;98936.14;1973835;88;21123;-74
2021/11/26 05:51:27;;;;;;;54.85;31.62;;;;;;;1.68;74.21;98941.98;1976470;87;21013;-72
2021/11/26 05:54:28;;;;;;;50.30;30.15;;;;;;;1.69;74.25;98927.96;2002454;87;21659;-76
2021/11/26 05:57:30;;;;;;;52.67;31.25;;;;;;;1.66;74.13;98928.70;2006639;87;21055;-76
2021/11/26 06:00:34;;;;;;;50.38;30.23;;;;;;;1.65;74.25;98932.28;2005962;87;21568;-78
2021/11/26 06:03:35;;;;;;;52.38;29.20;;;;;;;1.68;74.38;98920.23;2008339;87;21481;-74
2021/11/26 06:06:37;;;;;;;49.55;29.37;;;;;;;1.74;74.39;98914.45;2001722;87;21129;-83
2021/11/26 06:09:41;;;;;;;53.90;31.37;;;;;;;1.82;74.40;98915.06;2002879;87;21077;-82
2021/11/26 06:12:45;;;;;;;58.92;33.53;;;;;;;1.85;74.26;98908.24;2004827;87;21075;-86
2021/11/26 06:15:47;;;;;;;63.00;35.68;;;;;;;1.89;74.37;98903.91;2003767;87;21095;-85
2021/11/26 06:18:49;;;;;;;58.63;35.03;;;;;;;1.94;74.41;98913.92;2006282;87;21047;-72
2021/11/26 06:21:50;;;;;;;70.47;37.63;;;;;;;1.95;74.49;98920.34;2009783;87;21080;-85
2021/11/26 06:24:52;;;;;;;62.10;35.75;;;;;;;1.97;74.53;98922.80;2005779;87;21091;-81
2021/11/26 06:27:54;;;;;;;65.60;36.68;;;;;;;1.99;74.56;98920.88;2006959;87;21089;-85
2021/11/26 06:30:55;;;;;;;74.92;39.55;;;;;;;1.98;74.55;98913.52;1987123;88;21062;-85
2021/11/26 06:33:57;;;;;;;70.70;39.15;;;;;;;2.01;74.60;98922.88;1985980;88;21024;-81
2021/11/26 06:36:58;;;;;;;88.27;48.70;;;;;;;2.06;74.62;98920.67;2012330;85;21665;-84
2021/11/26 06:40:00;;;;;;;92.60;50.50;;;;;;;2.07;74.55;98919.69;2020295;86;21009;-77
2021/11/26 06:43:02;;;;;;;70.52;41.37;;;;;;;2.10;74.50;98918.09;2050681;84;21025;-85
2021/11/26 06:46:03;;;;;;;63.35;35.43;;;;;;;2.07;74.44;98912.33;2048218;85;20979;-82
2021/11/26 06:49:05;;;;;;;57.90;34.73;;;;;;;2.01;74.52;98907.17;1975448;88;21112;-84
2021/11/26 06:52:07;;;;;;;58.30;33.45;;;;;;;1.99;74.63;98910.41;1974738;88;21051;-85
2021/11/26 06:55:11;;;;;;;51.33;30.90;;;;;;;2.01;74.68;98913.23;1977603;88;21152;-86
2021/11/26 06:58:13;;;;;;;54.15;31.30;;;;;;;2.04;74.76;98910.00;1989073;88;21085;-85
2021/11/26 07:01:14;;;;;;;54.63;30.88;;;;;;;1.96;74.63;98910.20;2007195;87;21049;-85
2021/11/26 07:04:16;;;;;;;51.18;30.23;;;;;;;1.91;74.66;98910.29;2009794;87;20982;-84
2021/11/26 07:07:18;;;;;;;54.75;31.68;;;;;;;1.88;74.81;98904.03;2010128;87;21066;-86
2021/11/26 07:10:19;;;;;;;59.20;34.75;;;;;;;1.90;74.93;98905.55;1976851;88;21048;-86
2021/11/26 07:13:21;;;;;;;59.13;34.98;;;;;;;1.92;74.93;98902.31;1971657;88;21052;-87
2021/11/26 07:16:23;;;;;;;62.20;34.85;;;;;;;1.95;74.99;98901.21;1969441;88;22224;-83
2021/11/26 07:19:24;;;;;;;63.23;35.45;;;;;;;1.96;74.92;98900.23;1973427;87;21042;-86
2021/11/26 07:22:26;;;;;;;64.12;33.50;;;;;;;1.87;74.94;98902.39;1973225;88;21017;-86
2021/11/26 07:25:28;;;;;;;66.57;35.50;;;;;;;1.79;75.08;98903.91;2013012;87;21085;-86
2021/11/26 07:28:30;;;;;;;66.70;35.03;;;;;;;1.77;75.17;98898.02;1976685;88;21586;-80
2021/11/26 07:31:32;;;;;;;64.17;35.20;;;;;;;1.78;75.21;98901.45;1976055;88;21118;-87
2021/11/26 07:34:34;;;;;;;65.55;36.80;;;;;;;1.75;75.25;98898.63;2042366;85;21315;-86
2021/11/26 07:37:36;;;;;;;77.22;41.25;;;;;;;1.74;75.33;98899.58;2036267;85;21518;-84
2021/11/26 07:40:38;;;;;;;74.77;39.40;;;;;;;1.75;75.34;98902.55;2036077;85;21063;-83
2021/11/26 07:43:39;;;;;;;78.65;41.75;;;;;;;1.79;75.48;98906.52;2037894;85;22229;-86
2021/11/26 07:46:41;;;;;;;76.05;40.78;;;;;;;1.85;75.47;98903.83;2036898;85;21074;-87
2021/11/26 07:49:45;;;;;;;76.28;41.15;;;;;;;1.93;75.56;98898.72;2039342;85;21623;-86
2021/11/26 07:52:46;;;;;;;73.12;38.90;;;;;;;2.01;75.49;98899.33;2003749;85;21585;-87
2021/11/26 07:55:49;;;;;;;70.90;37.40;;;;;;;2.05;75.44;98901.98;2035169;85;21054;-86
2021/11/26 07:58:51;;;;;;;64.12;35.65;;;;;;;2.12;75.43;98902.27;2040374;85;21012;-87
2021/11/26 08:01:54;;;;;;;63.90;37.45;;;;;;;2.15;75.41;98904.11;2039888;85;21034;-82
2021/11/26 08:04:55;;;;;;;72.00;40.60;;;;;;;2.20;75.35;98888.80;2020347;86;21034;-87
2021/11/26 08:07:58;;;;;;;67.78;39.13;;;;;;;2.29;75.41;98898.90;1996202;87;21489;-84
2021/11/26 08:11:01;;;;;;;75.83;40.90;;;;;;;2.37;75.33;98908.66;1971259;87;21557;-87
2021/11/26 08:14:02;;;;;;;73.87;39.20;;;;;;;2.44;75.31;98901.86;2001005;85;21073;-83
2021/11/26 08:17:04;;;;;;;73.83;41.00;;;;;;;2.46;75.23;98905.16;2006431;87;20997;-86
2021/11/26 08:20:06;;;;;;;76.33;42.95;;;;;;;2.47;75.15;98905.50;2001302;86;21120;-87
2021/11/26 08:23:09;;;;;;;68.15;39.35;;;;;;;2.49;75.13;98894.41;2005514;86;21118;-79
2021/11/26 08:26:10;;;;;;;68.05;39.85;;;;;;;2.50;75.07;98887.36;1970902;88;21124;-82
2021/11/26 08:29:13;;;;;;;69.50;37.93;;;;;;;2.48;74.94;98882.29;1967668;88;21101;-82
2021/11/26 08:32:15;;;;;;;66.02;36.30;;;;;;;2.47;74.98;98883.23;1980283;88;21108;-84
2021/11/26 08:35:17;;;;;;;63.35;37.17;;;;;;;2.51;75.03;98882.00;1979366;88;21589;-85
2021/11/26 08:38:20;;;;;;;64.85;37.63;;;;;;;2.58;74.87;98880.43;1980977;88;21103;-86
2021/11/26 08:41:22;;;;;;;66.42;37.78;;;;;;;2.64;74.96;98869.85;2005095;87;21168;-85
2021/11/26 08:44:24;;;;;;;70.62;41.18;;;;;;;2.71;74.93;98863.56;2003476;87;20988;-85
2021/11/26 08:47:26;;;;;;;67.35;39.55;;;;;;;2.72;74.82;98858.65;2001870;87;20995;-84
2021/11/26 08:50:28;;;;;;;68.70;37.58;;;;;;;2.74;74.79;98847.05;2001801;87;21586;-85
2021/11/26 08:53:32;;;;;;;66.45;36.98;;;;;;;2.75;74.67;98840.83;2003013;87;21522;-85
2021/11/26 08:56:33;;;;;;;69.25;39.23;;;;;;;2.72;74.61;98828.04;2008812;87;21099;-83
2021/11/26 08:59:35;;;;;;;71.22;39.67;;;;;;;2.68;74.64;98830.13;2003780;87;21027;-86
2021/11/26 09:02:37;;;;;;;62.60;37.00;;;;;;;2.68;74.72;98819.66;2004687;87;21068;-85
2021/11/26 09:05:38;;;;;;;62.38;36.05;;;;;;;2.67;74.60;98815.38;2008279;87;21515;-85
2021/11/26 09:08:40;;;;;;;60.80;35.03;;;;;;;2.68;74.80;98813.11;2005319;87;21574;-85
2021/11/26 09:11:42;;;;;;;58.52;34.83;;;;;;;2.67;74.64;98811.44;2005588;87;21031;-85
2021/11/26 09:14:44;;;;;;;58.60;33.92;;;;;;;2.74;74.77;98808.26;2008231;87;21062;-86
2021/11/26 09:17:46;;;;;;;60.05;35.10;;;;;;;2.77;74.73;98797.48;2045966;85;20986;-80
2021/11/26 09:20:53;;;;;;;58.80;33.85;;;;;;;2.74;74.38;98789.92;2044551;85;20997;-86
2021/11/26 09:23:55;;;;;;;56.48;33.85;;;;;;;2.71;74.48;98783.67;2048255;84;21096;-84
2021/11/26 09:26:57;;;;;;;60.33;35.00;;;;;;;2.78;74.67;98778.98;2051429;85;21018;-86
2021/11/26 09:29:59;;;;;;;58.70;33.38;;;;;;;2.83;74.59;98776.73;2043025;85;21069;-83
2021/11/26 09:33:00;;;;;;;60.35;34.40;;;;;;;2.91;74.44;98771.57;2044129;85;21070;-86
2021/11/26 09:36:08;;;;;;;55.85;32.73;;;;;;;2.93;74.39;98775.36;2047640;84;21025;-88
2021/11/26 09:39:10;;;;;;;65.20;35.10;;;;;;;2.93;74.33;98776.67;2009726;87;21117;-88
2021/11/26 09:42:12;;;;;;;59.63;33.92;;;;;;;3.03;74.55;98771.34;2007533;86;21052;-85
2021/11/26 09:45:21;;;;;;;64.92;37.53;;;;;;;3.09;74.52;98763.68;2005610;87;21054;-88
2021/11/26 09:48:21;;;;;;;62.73;34.83;;;;;;;3.16;74.43;98749.99;1972707;88;21101;-86
2021/11/26 09:51:22;;;;;;;61.77;36.00;;;;;;;3.20;74.33;98741.65;2016963;87;22741;-88
2021/11/26 09:54:24;;;;;;;60.28;34.15;;;;;;;3.24;74.27;98732.98;2005695;87;21193;-88
2021/11/26 09:57:26;;;;;;;59.55;34.55;;;;;;;3.31;74.37;98732.72;2002336;87;21017;-88
2021/11/26 10:00:28;;;;;;;56.33;32.88;;;;;;;3.40;74.34;98736.21;2040493;85;21460;-88
2021/11/26 10:03:47;;;;;;;56.75;32.80;;;;;;;3.46;74.23;98729.84;2034998;85;21090;-88
2021/11/26 10:06:49;;;;;;;62.48;34.27;;;;;;;3.52;74.02;98737.58;2037222;85;21460;-89
2021/11/26 10:09:50;;;;;;;60.65;33.98;;;;;;;3.51;73.93;98736.77;2037806;85;21087;-81
2021/11/26 10:13:09;;;;;;;60.10;35.15;;;;;;;3.47;73.75;98727.58;2040440;85;21029;-88
2021/11/26 10:16:11;;;;;;;58.17;34.95;;;;;;;3.45;73.78;98723.46;2038126;85;21562;-88
2021/11/26 10:19:13;;;;;;;59.45;32.45;;;;;;;3.39;73.72;98717.04;2036042;85;21032;-88
2021/11/26 10:22:31;;;;;;;52.55;32.15;;;;;;;3.35;73.68;98707.36;2041298;85;21902;-87
2021/11/26 10:25:33;;;;;;;56.23;31.70;;;;;;;3.37;73.68;98698.83;2040327;85;21474;-87
2021/11/26 10:28:41;;;;;;;56.37;34.05;;;;;;;3.39;73.59;98694.75;2035524;85;21053;-88
2021/11/26 10:31:43;;;;;;;61.42;33.08;;;;;;;3.46;73.61;98683.14;2040171;85;21577;-82
2021/11/26 10:56:46;;;;;;;51.20;29.37;;;;;;;3.18;73.55;98661.52;2039816;84;21659;-87
2021/11/26 10:59:32;;;;;;;50.60;29.57;;;;;;;3.05;73.60;98641.80;2041255;85;21006;-85
2021/11/26 11:02:39;;;;;;;49.38;29.25;;;;;;;3.12;73.68;98632.33;2039306;85;21058;-87
2021/11/26 11:05:41;;;;;;;47.45;27.85;;;;;;;3.12;73.61;98629.70;2034969;85;21151;-87
2021/11/26 11:08:43;;;;;;;51.55;28.90;;;;;;;3.13;73.74;98629.23;2038525;85;21108;-86
2021/11/26 11:11:54;;;;;;;52.13;28.47;;;;;;;3.09;73.68;98621.34;2041285;85;20998;-83
2021/11/26 11:15:02;;;;;;;50.67;31.65;;;;;;;3.03;73.75;98613.61;2038953;85;21067;-89
2021/11/26 11:18:04;;;;;;;57.17;31.12;;;;;;;3.02;73.90;98612.47;2040120;85;21003;-89
2021/11/26 11:21:09;;;;;;;58.73;33.02;;;;;;;3.03;73.88;98612.80;2040167;85;21217;-89
2021/11/26 11:24:11;;;;;;;53.95;30.85;;;;;;;3.03;73.84;98597.89;2037688;85;21841;-88
2021/11/26 11:27:14;;;;;;;59.15;32.93;;;;;;;3.01;73.87;98593.28;2035374;85;21180;-86
2021/11/26 11:30:15;;;;;;;48.42;27.27;;;;;;;3.01;73.87;98593.77;2040872;85;21063;-79
2021/11/26 11:33:18;;;;;;;50.55;29.12;;;;;;;3.01;73.79;98589.84;2039067;85;21070;-81
2021/11/26 11:36:20;;;;;;;58.92;31.30;;;;;;;2.95;73.78;98585.23;2042085;84;21030;-76
2021/11/26 11:39:22;;;;;;;55.48;30.88;;;;;;;2.95;73.90;98583.43;2036765;85;21385;-81
2021/11/26 11:42:29;;;;;;;54.80;31.33;;;;;;;2.99;74.07;98570.86;2042149;84;21044;-84
2021/11/26 11:45:30;;;;;;;59.08;32.28;;;;;;;3.03;74.09;98565.12;2040727;85;21072;-82
2021/11/26 11:48:36;;;;;;;53.95;31.62;;;;;;;3.04;74.09;98566.80;2040769;85;21610;-72
2021/11/26 11:51:43;;;;;;;51.20;30.25;;;;;;;3.08;74.25;98566.80;2041324;85;20989;-81
2021/11/26 11:54:48;;;;;;;52.27;28.92;;;;;;;3.14;74.38;98560.11;2036723;84;21101;-81
2021/11/26 11:57:52;;;;;;;48.80;28.80;;;;;;;3.23;74.29;98549.16;2036630;85;21105;-80
2021/11/26 12:00:55;;;;;;;51.45;29.52;;;;;;;3.29;74.17;98540.66;2041058;85;21113;-78
2021/11/26 12:04:00;;;;;;;49.93;28.62;;;;;;;3.23;73.82;98544.73;2039511;85;21607;-80
2021/11/26 12:07:02;;;;;;;53.20;31.20;;;;;;;3.21;74.12;98536.70;2036589;85;21028;-78
2021/11/26 12:10:13;;;;;;;52.00;29.57;;;;;;;3.28;74.13;98535.09;2040439;85;21039;-80
2021/11/26 12:13:28;;;;;;;51.95;29.82;;;;;;;3.29;74.04;98530.17;2040062;85;21071;-81
2021/11/26 12:16:48;;;;;;;52.93;30.00;;;;;;;3.23;73.81;98517.71;2040558;85;21565;-79
2021/11/26 12:20:09;;;;;;;51.13;29.05;;;;;;;3.25;73.93;98517.06;2038929;85;21051;-77
2021/11/26 12:23:24;;;;;;;49.13;28.85;;;;;;;3.23;73.95;98502.80;2040097;85;21087;-79
2021/11/26 12:26:31;;;;;;;46.13;26.20;;;;;;;3.21;73.91;98507.86;2041893;85;21047;-78
2021/11/26 12:29:46;;;;;;;48.13;27.10;;;;;;;3.11;73.93;98498.34;2036262;85;21510;-80
2021/11/26 12:32:48;;;;;;;46.73;27.52;;;;;;;3.11;74.06;98494.91;2039499;85;21081;-79
2021/11/26 12:36:15;;;;;;;50.17;29.45;;;;;;;3.08;74.01;98482.94;2034697;85;21075;-79
2021/11/26 12:39:29;;;;;;;50.85;30.08;;;;;;;3.07;74.29;98492.25;2034412;85;21028;-81
2021/11/26 12:42:31;;;;;;;54.55;30.95;;;;;;;3.12;74.49;98484.73;2043460;85;21103;-80
2021/11/26 12:45:35;;;;;;;60.28;33.15;;;;;;;3.09;74.18;98472.77;2038347;85;21105;-79
2021/11/26 12:48:45;;;;;;;65.32;34.85;;;;;;;3.01;74.20;98470.62;2040105;85;21671;-76
2021/11/26 12:51:44;;;;;;;61.05;32.63;;;;;;;2.97;74.43;98466.19;2040276;85;21062;-79
2021/11/26 12:54:53;;;;;;;54.63;31.33;;;;;;;2.94;74.48;98474.38;2036752;85;21670;-80
2021/11/26 12:57:55;;;;;;;57.45;32.13;;;;;;;2.90;74.51;98469.95;2038688;85;21084;-79
2021/11/26 13:01:08;;;;;;;55.90;31.57;;;;;;;2.86;74.53;98467.78;2041174;84;21534;-76
2021/11/26 13:04:11;;;;;;;60.85;33.90;;;;;;;2.86;74.60;98464.67;2035988;85;21151;-78
2021/11/26 13:07:14;;;;;;;63.33;34.23;;;;;;;2.80;74.55;98459.25;2036934;85;20962;-79
2021/11/26 13:10:20;;;;;;;60.85;33.98;;;;;;;2.77;74.79;98454.33;2036109;85;21053;-79
2021/11/26 13:13:25;;;;;;;64.92;35.33;;;;;;;2.74;74.77;98443.68;2038548;85;21707;-79
2021/11/26 13:16:27;;;;;;;66.20;35.23;;;;;;;2.74;74.87;98442.86;2038249;85;21054;-79
2021/11/26 13:19:29;;;;;;;58.00;32.65;;;;;;;2.72;74.90;98434.34;2042278;85;21012;-80
2021/11/26 13:22:34;;;;;;;62.05;34.75;;;;;;;2.70;74.89;98429.23;2039372;85;21068;-80
2021/11/26 13:25:40;;;;;;;58.45;33.33;;;;;;;2.71;75.00;98426.16;2039827;85;21064;-79
2021/11/26 13:28:47;;;;;;;60.95;34.33;;;;;;;2.76;75.01;98417.31;2044378;85;21076;-79
2021/11/26 13:31:49;;;;;;;66.07;36.13;;;;;;;2.79;75.20;98409.13;2025642;85;21076;-79
2021/11/26 13:34:54;;;;;;;68.85;36.93;;;;;;;2.80;75.05;98412.11;2027540;86;21089;-80
2021/11/26 13:37:57;;;;;;;72.37;38.67;;;;;;;2.77;75.12;98405.88;2022722;86;21061;-76
2021/11/26 13:41:04;;;;;;;71.02;38.58;;;;;;;2.75;75.17;98402.09;2020400;86;21053;-78
2021/11/26 13:44:20;;;;;;;70.87;36.28;;;;;;;2.71;75.25;98389.00;2021801;86;21034;-79
2021/11/26 13:47:23;;;;;;;70.78;37.58;;;;;;;2.69;75.32;98389.64;2023125;86;21044;-78
2021/11/26 13:50:25;;;;;;;66.10;34.58;;;;;;;2.69;75.39;98389.14;2011630;86;21519;-79
2021/11/26 13:53:28;;;;;;;62.38;33.58;;;;;;;2.71;75.47;98385.56;2022063;86;21081;-77
2021/11/26 13:56:37;;;;;;;65.28;35.35;;;;;;;2.78;75.46;98390.48;2023201;86;21089;-79
2021/11/26 13:59:40;;;;;;;72.67;35.03;;;;;;;2.80;75.39;98391.15;2020194;86;21062;-76
2021/11/26 14:02:55;;;;;;;68.02;34.60;;;;;;;2.91;75.47;98390.36;1994205;87;21047;-78
2021/11/26 14:06:16;;;;;;;64.12;35.08;;;;;;;2.97;75.43;98381.53;1995529;87;21110;-77
2021/11/26 14:09:18;;;;;;;62.38;36.70;;;;;;;2.90;75.18;98381.33;1992367;87;21075;-77
2021/11/26 14:12:26;;;;;;;62.93;35.68;;;;;;;2.87;75.32;98380.34;2005109;87;20970;-78
2021/11/26 14:15:28;;;;;;;63.25;32.85;;;;;;;2.80;75.32;98372.31;1999910;88;21111;-76
2021/11/26 14:18:29;;;;;;;58.20;33.10;;;;;;;2.77;75.52;98371.33;1993487;87;21498;-78
2021/11/26 14:21:32;;;;;;;61.90;33.35;;;;;;;2.83;75.55;98368.56;1999925;87;21124;-77
2021/11/26 14:24:48;;;;;;;61.05;34.23;;;;;;;2.86;75.56;98368.23;2022407;86;21000;-77
2021/11/26 14:27:54;;;;;;;61.10;33.33;;;;;;;2.89;75.55;98372.66;1999098;87;21045;-78
2021/11/26 14:31:06;;;;;;;60.45;30.40;;;;;;;2.96;75.57;98363.69;2026592;85;21868;-78
2021/11/26 14:34:14;;;;;;;50.20;28.25;;;;;;;2.87;75.43;98361.55;2040861;85;21078;-78